Livonia, New York
Current Conditions -  °F | °C
As of 2:54 AM on Friday 24 Oct 2014 (Local Time) from KDSV Reporting Station
Overcast Overcast  
Wind Chill: 11°   Ceiling: 3800
Heat Index: 11°   Visibility: 10mi
Dew Point:   Wind: 5mph
Humidity: 71%   Direction: 330°NNW
Pressure: 30"   Gusts: NA
Location:  42.82°N, 77.67°W
Report Text: KDSV 240654Z AUTO 33004KT 10SM OVC038 11/06 A3000 RMK AO2 SLP167 T01060056
Loading
Personal Weather Stations






























Interactive Weather Map
Tropical Storm Tracking
New forecast layout! Learn more

10-Day Weather Forecast

Advertisements
Track Severe Weather on mobile